Terminal Aerodrome Forecast
Issued by NWS Binghamton, NY

Home | Current Version | Previous Version | Text Only | Print | Product List | Glossary On
Versions: 1 2 3 4 5 6 7 8 9 10 11 12 13 14 15 16 17 18
000
FTUS41 KBGM 050842 AAC
TAFBGM
TAF AMD
KBGM 050842Z 0509/0606 32003KT P6SM OVC022
      TEMPO 0509/0512 -SHRA OVC015
     FM051300 36006KT P6SM SCT022 BKN250
     FM051600 01005KT P6SM BKN050 BKN250
     FM060400 04005KT P6SM -RA OVC080=

USA.gov is the U.S. government's official web portal to all federal, state and local government web resources and services.